sensor_id;sensor_type;location;lat;lon;timestamp;temperature;humidity
74359;DHT22;62792;46.236;6.040;2024-03-08T00:01:01;22.70;38.60
74359;DHT22;62792;46.236;6.040;2024-03-08T00:06:06;22.70;38.40
74359;DHT22;62792;46.236;6.040;2024-03-08T00:11:09;22.70;38.40
74359;DHT22;62792;46.236;6.040;2024-03-08T00:16:12;22.70;38.40
74359;DHT22;62792;46.236;6.040;2024-03-08T00:21:16;22.70;38.30
74359;DHT22;62792;46.236;6.040;2024-03-08T00:26:19;22.80;38.30
74359;DHT22;62792;46.236;6.040;2024-03-08T00:31:24;22.70;38.30
74359;DHT22;62792;46.236;6.040;2024-03-08T00:36:28;22.70;38.10
74359;DHT22;62792;46.236;6.040;2024-03-08T00:41:32;22.60;38.10
74359;DHT22;62792;46.236;6.040;2024-03-08T00:46:35;22.60;38.20
74359;DHT22;62792;46.236;6.040;2024-03-08T00:51:39;22.60;38.20
74359;DHT22;62792;46.236;6.040;2024-03-08T00:56:42;22.60;38.10
74359;DHT22;62792;46.236;6.040;2024-03-08T01:01:45;22.60;38.20
74359;DHT22;62792;46.236;6.040;2024-03-08T01:06:49;22.60;38.00
74359;DHT22;62792;46.236;6.040;2024-03-08T01:11:52;22.60;38.00
74359;DHT22;62792;46.236;6.040;2024-03-08T01:16:55;22.50;38.20
74359;DHT22;62792;46.236;6.040;2024-03-08T01:22:00;22.60;38.00
74359;DHT22;62792;46.236;6.040;2024-03-08T01:27:03;22.50;38.10
74359;DHT22;62792;46.236;6.040;2024-03-08T01:32:06;22.50;37.90
74359;DHT22;62792;46.236;6.040;2024-03-08T01:37:11;22.50;37.90
74359;DHT22;62792;46.236;6.040;2024-03-08T01:42:16;22.50;38.00
74359;DHT22;62792;46.236;6.040;2024-03-08T01:47:19;22.50;37.90
74359;DHT22;62792;46.236;6.040;2024-03-08T01:52:25;22.50;37.80
74359;DHT22;62792;46.236;6.040;2024-03-08T01:57:29;22.50;37.90
74359;DHT22;62792;46.236;6.040;2024-03-08T02:02:35;22.50;37.90
74359;DHT22;62792;46.236;6.040;2024-03-08T02:07:41;22.50;37.70
74359;DHT22;62792;46.236;6.040;2024-03-08T02:12:45;22.40;37.80
74359;DHT22;62792;46.236;6.040;2024-03-08T02:17:49;22.40;37.70
74359;DHT22;62792;46.236;6.040;2024-03-08T02:22:53;22.50;37.70
74359;DHT22;62792;46.236;6.040;2024-03-08T02:27:56;22.40;37.80
74359;DHT22;62792;46.236;6.040;2024-03-08T02:32:59;22.40;37.60
74359;DHT22;62792;46.236;6.040;2024-03-08T02:38:04;22.40;37.70
74359;DHT22;62792;46.236;6.040;2024-03-08T02:43:09;22.40;37.60
74359;DHT22;62792;46.236;6.040;2024-03-08T02:48:12;22.40;37.60
74359;DHT22;62792;46.236;6.040;2024-03-08T02:53:17;22.40;37.50
74359;DHT22;62792;46.236;6.040;2024-03-08T02:58:21;22.40;37.60
74359;DHT22;62792;46.236;6.040;2024-03-08T03:03:24;22.40;37.70
74359;DHT22;62792;46.236;6.040;2024-03-08T03:08:29;22.40;37.70
74359;DHT22;62792;46.236;6.040;2024-03-08T03:13:32;22.40;37.50
74359;DHT22;62792;46.236;6.040;2024-03-08T03:18:35;22.40;37.40
74359;DHT22;62792;46.236;6.040;2024-03-08T03:23:40;22.40;37.40
74359;DHT22;62792;46.236;6.040;2024-03-08T03:28:43;22.30;37.40
74359;DHT22;62792;46.236;6.040;2024-03-08T03:33:46;22.40;37.40
74359;DHT22;62792;46.236;6.040;2024-03-08T03:38:51;22.40;37.60
74359;DHT22;62792;46.236;6.040;2024-03-08T03:44:06;22.30;37.40
74359;DHT22;62792;46.236;6.040;2024-03-08T03:49:09;22.30;37.40
74359;DHT22;62792;46.236;6.040;2024-03-08T03:54:13;22.40;37.30
74359;DHT22;62792;46.236;6.040;2024-03-08T03:59:16;22.30;37.40
74359;DHT22;62792;46.236;6.040;2024-03-08T04:04:19;22.30;37.30
74359;DHT22;62792;46.236;6.040;2024-03-08T04:09:24;22.30;37.30
74359;DHT22;62792;46.236;6.040;2024-03-08T04:14:27;22.30;37.10
74359;DHT22;62792;46.236;6.040;2024-03-08T04:19:30;22.30;37.20
74359;DHT22;62792;46.236;6.040;2024-03-08T04:24:34;22.30;37.10
74359;DHT22;62792;46.236;6.040;2024-03-08T04:29:37;22.30;37.30
74359;DHT22;62792;46.236;6.040;2024-03-08T04:34:40;22.30;37.30
74359;DHT22;62792;46.236;6.040;2024-03-08T04:39:48;22.30;37.00
74359;DHT22;62792;46.236;6.040;2024-03-08T04:44:51;22.30;37.10
74359;DHT22;62792;46.236;6.040;2024-03-08T04:49:55;22.20;37.00
74359;DHT22;62792;46.236;6.040;2024-03-08T04:55:01;22.30;37.00
74359;DHT22;62792;46.236;6.040;2024-03-08T05:00:06;22.20;37.00
74359;DHT22;62792;46.236;6.040;2024-03-08T05:05:13;22.30;37.00
74359;DHT22;62792;46.236;6.040;2024-03-08T05:10:18;22.30;37.20
74359;DHT22;62792;46.236;6.040;2024-03-08T05:15:21;22.30;36.80
74359;DHT22;62792;46.236;6.040;2024-03-08T05:20:24;22.20;37.10
74359;DHT22;62792;46.236;6.040;2024-03-08T05:25:28;22.20;37.10
74359;DHT22;62792;46.236;6.040;2024-03-08T05:30:31;22.30;37.10
74359;DHT22;62792;46.236;6.040;2024-03-08T05:35:34;22.20;37.00
74359;DHT22;62792;46.236;6.040;2024-03-08T05:40:39;22.30;37.00
74359;DHT22;62792;46.236;6.040;2024-03-08T05:45:44;22.40;36.80
74359;DHT22;62792;46.236;6.040;2024-03-08T05:50:47;22.40;36.90
74359;DHT22;62792;46.236;6.040;2024-03-08T05:55:52;22.50;36.80
74359;DHT22;62792;46.236;6.040;2024-03-08T06:00:55;22.50;36.80
74359;DHT22;62792;46.236;6.040;2024-03-08T06:05:58;22.70;36.70
74359;DHT22;62792;46.236;6.040;2024-03-08T06:11:03;22.70;37.00
74359;DHT22;62792;46.236;6.040;2024-03-08T06:16:07;22.70;36.80
74359;DHT22;62792;46.236;6.040;2024-03-08T06:21:11;22.70;36.70
74359;DHT22;62792;46.236;6.040;2024-03-08T06:26:15;22.70;36.70
74359;DHT22;62792;46.236;6.040;2024-03-08T06:31:18;22.70;36.70
74359;DHT22;62792;46.236;6.040;2024-03-08T06:36:22;22.70;36.80
74359;DHT22;62792;46.236;6.040;2024-03-08T06:41:26;22.60;36.80
74359;DHT22;62792;46.236;6.040;2024-03-08T06:46:29;22.70;36.80
74359;DHT22;62792;46.236;6.040;2024-03-08T06:51:32;22.80;36.80
74359;DHT22;62792;46.236;6.040;2024-03-08T06:56:36;22.80;36.80
74359;DHT22;62792;46.236;6.040;2024-03-08T07:01:40;22.90;36.70
74359;DHT22;62792;46.236;6.040;2024-03-08T07:06:43;22.80;36.80
74359;DHT22;62792;46.236;6.040;2024-03-08T07:11:47;22.90;36.90
74359;DHT22;62792;46.236;6.040;2024-03-08T07:16:56;22.90;36.80
74359;DHT22;62792;46.236;6.040;2024-03-08T07:21:59;22.80;36.90
74359;DHT22;62792;46.236;6.040;2024-03-08T07:27:06;22.80;36.80
74359;DHT22;62792;46.236;6.040;2024-03-08T07:32:09;22.80;36.80
74359;DHT22;62792;46.236;6.040;2024-03-08T07:37:22;22.80;36.90
74359;DHT22;62792;46.236;6.040;2024-03-08T07:42:26;22.90;36.80
74359;DHT22;62792;46.236;6.040;2024-03-08T07:47:30;22.90;37.00
74359;DHT22;62792;46.236;6.040;2024-03-08T07:52:35;22.90;36.90
74359;DHT22;62792;46.236;6.040;2024-03-08T07:57:39;22.90;37.10
74359;DHT22;62792;46.236;6.040;2024-03-08T08:02:44;22.90;37.10
74359;DHT22;62792;46.236;6.040;2024-03-08T08:07:47;22.90;36.80
74359;DHT22;62792;46.236;6.040;2024-03-08T08:12:54;22.90;36.90
74359;DHT22;62792;46.236;6.040;2024-03-08T08:17:58;22.90;37.10
74359;DHT22;62792;46.236;6.040;2024-03-08T08:23:01;22.90;36.90
74359;DHT22;62792;46.236;6.040;2024-03-08T08:28:06;22.90;37.50
74359;DHT22;62792;46.236;6.040;2024-03-08T08:33:10;23.20;38.20
74359;DHT22;62792;46.236;6.040;2024-03-08T08:38:14;23.20;38.60
74359;DHT22;62792;46.236;6.040;2024-03-08T08:43:18;23.30;38.70
74359;DHT22;62792;46.236;6.040;2024-03-08T08:48:23;23.40;38.70
74359;DHT22;62792;46.236;6.040;2024-03-08T08:53:26;23.50;38.90
74359;DHT22;62792;46.236;6.040;2024-03-08T08:58:30;23.60;39.30
74359;DHT22;62792;46.236;6.040;2024-03-08T09:03:33;23.60;38.70
74359;DHT22;62792;46.236;6.040;2024-03-08T09:08:38;23.60;39.40
74359;DHT22;62792;46.236;6.040;2024-03-08T09:13:43;23.70;38.40
74359;DHT22;62792;46.236;6.040;2024-03-08T09:18:47;23.50;39.00
74359;DHT22;62792;46.236;6.040;2024-03-08T09:23:50;23.60;38.90
74359;DHT22;62792;46.236;6.040;2024-03-08T09:28:54;23.80;37.90
74359;DHT22;62792;46.236;6.040;2024-03-08T09:33:57;23.90;38.00
74359;DHT22;62792;46.236;6.040;2024-03-08T09:39:00;23.90;38.10
74359;DHT22;62792;46.236;6.040;2024-03-08T09:44:06;23.60;38.50
74359;DHT22;62792;46.236;6.040;2024-03-08T09:49:08;23.90;37.60
74359;DHT22;62792;46.236;6.040;2024-03-08T09:54:13;24.10;37.10
74359;DHT22;62792;46.236;6.040;2024-03-08T09:59:25;24.10;37.30
74359;DHT22;62792;46.236;6.040;2024-03-08T10:04:48;24.20;37.30
74359;DHT22;62792;46.236;6.040;2024-03-08T10:09:51;24.10;37.70
74359;DHT22;62792;46.236;6.040;2024-03-08T10:14:57;24.00;38.00
74359;DHT22;62792;46.236;6.040;2024-03-08T10:20:00;24.00;37.80
74359;DHT22;62792;46.236;6.040;2024-03-08T10:25:06;23.90;38.10
74359;DHT22;62792;46.236;6.040;2024-03-08T10:30:14;24.00;38.10
74359;DHT22;62792;46.236;6.040;2024-03-08T10:35:21;24.10;37.90
74359;DHT22;62792;46.236;6.040;2024-03-08T10:40:25;24.00;37.80
74359;DHT22;62792;46.236;6.040;2024-03-08T10:45:34;24.00;37.80
74359;DHT22;62792;46.236;6.040;2024-03-08T10:50:38;23.70;37.40
74359;DHT22;62792;46.236;6.040;2024-03-08T10:55:41;23.50;38.20
74359;DHT22;62792;46.236;6.040;2024-03-08T11:00:46;23.80;37.50
74359;DHT22;62792;46.236;6.040;2024-03-08T11:05:51;24.00;37.50
74359;DHT22;62792;46.236;6.040;2024-03-08T11:10:54;23.90;37.60
74359;DHT22;62792;46.236;6.040;2024-03-08T11:16:00;23.80;37.70
74359;DHT22;62792;46.236;6.040;2024-03-08T11:21:03;23.90;37.90
74359;DHT22;62792;46.236;6.040;2024-03-08T11:26:17;23.80;37.60
74359;DHT22;62792;46.236;6.040;2024-03-08T11:31:25;23.80;37.40
74359;DHT22;62792;46.236;6.040;2024-03-08T11:36:30;24.00;37.60
74359;DHT22;62792;46.236;6.040;2024-03-08T11:41:37;24.10;37.70
74359;DHT22;62792;46.236;6.040;2024-03-08T11:46:41;24.00;37.80
74359;DHT22;62792;46.236;6.040;2024-03-08T11:51:49;24.00;37.70
74359;DHT22;62792;46.236;6.040;2024-03-08T11:56:54;24.10;37.60
74359;DHT22;62792;46.236;6.040;2024-03-08T12:02:02;24.00;37.50
74359;DHT22;62792;46.236;6.040;2024-03-08T12:07:09;24.00;37.60
74359;DHT22;62792;46.236;6.040;2024-03-08T12:12:14;24.10;37.50
74359;DHT22;62792;46.236;6.040;2024-03-08T12:17:18;24.20;37.50
74359;DHT22;62792;46.236;6.040;2024-03-08T12:22:24;24.30;37.30
74359;DHT22;62792;46.236;6.040;2024-03-08T12:27:27;24.20;37.30
74359;DHT22;62792;46.236;6.040;2024-03-08T12:32:32;24.30;37.30
74359;DHT22;62792;46.236;6.040;2024-03-08T12:37:34;24.00;38.60
74359;DHT22;62792;46.236;6.040;2024-03-08T12:42:39;23.90;37.90
74359;DHT22;62792;46.236;6.040;2024-03-08T12:47:43;24.00;38.20
74359;DHT22;62792;46.236;6.040;2024-03-08T12:52:46;24.00;38.30
74359;DHT22;62792;46.236;6.040;2024-03-08T12:57:54;24.00;38.50
74359;DHT22;62792;46.236;6.040;2024-03-08T13:02:58;24.20;38.30
74359;DHT22;62792;46.236;6.040;2024-03-08T13:08:01;24.10;38.80
74359;DHT22;62792;46.236;6.040;2024-03-08T13:13:04;24.30;38.30
74359;DHT22;62792;46.236;6.040;2024-03-08T13:18:08;24.30;38.50
74359;DHT22;62792;46.236;6.040;2024-03-08T13:23:12;24.30;38.40
74359;DHT22;62792;46.236;6.040;2024-03-08T13:28:15;24.30;37.90
74359;DHT22;62792;46.236;6.040;2024-03-08T13:33:20;24.00;37.90
74359;DHT22;62792;46.236;6.040;2024-03-08T13:38:23;23.90;38.10
74359;DHT22;62792;46.236;6.040;2024-03-08T13:43:27;23.90;38.20
74359;DHT22;62792;46.236;6.040;2024-03-08T13:48:32;23.90;38.30
74359;DHT22;62792;46.236;6.040;2024-03-08T13:53:35;24.20;38.30
74359;DHT22;62792;46.236;6.040;2024-03-08T13:58:38;24.20;38.40
74359;DHT22;62792;46.236;6.040;2024-03-08T14:03:43;24.20;38.10
74359;DHT22;62792;46.236;6.040;2024-03-08T14:08:46;24.20;38.20
74359;DHT22;62792;46.236;6.040;2024-03-08T14:13:49;24.20;38.30
74359;DHT22;62792;46.236;6.040;2024-03-08T14:18:54;24.30;38.30
74359;DHT22;62792;46.236;6.040;2024-03-08T14:23:57;24.40;38.20
74359;DHT22;62792;46.236;6.040;2024-03-08T14:29:00;24.40;38.40
74359;DHT22;62792;46.236;6.040;2024-03-08T14:34:04;24.30;38.30
74359;DHT22;62792;46.236;6.040;2024-03-08T14:39:08;24.50;38.20
74359;DHT22;62792;46.236;6.040;2024-03-08T14:44:11;24.40;38.30
74359;DHT22;62792;46.236;6.040;2024-03-08T14:49:15;24.40;38.40
74359;DHT22;62792;46.236;6.040;2024-03-08T14:54:20;24.50;38.20
74359;DHT22;62792;46.236;6.040;2024-03-08T14:59:24;24.40;38.00
74359;DHT22;62792;46.236;6.040;2024-03-08T15:04:32;24.30;38.10
74359;DHT22;62792;46.236;6.040;2024-03-08T15:09:37;24.20;38.10
74359;DHT22;62792;46.236;6.040;2024-03-08T15:14:41;24.30;38.30
74359;DHT22;62792;46.236;6.040;2024-03-08T15:19:47;24.50;38.50
74359;DHT22;62792;46.236;6.040;2024-03-08T15:24:50;24.60;38.70
74359;DHT22;62792;46.236;6.040;2024-03-08T15:29:54;24.70;38.50
74359;DHT22;62792;46.236;6.040;2024-03-08T15:34:58;24.60;38.80
74359;DHT22;62792;46.236;6.040;2024-03-08T15:40:02;24.70;38.70
74359;DHT22;62792;46.236;6.040;2024-03-08T15:45:08;24.60;38.40
74359;DHT22;62792;46.236;6.040;2024-03-08T15:50:14;24.50;38.60
74359;DHT22;62792;46.236;6.040;2024-03-08T15:55:18;24.40;38.70
74359;DHT22;62792;46.236;6.040;2024-03-08T16:00:25;24.40;38.50
74359;DHT22;62792;46.236;6.040;2024-03-08T16:05:38;24.40;38.50
74359;DHT22;62792;46.236;6.040;2024-03-08T16:10:42;24.40;38.80
74359;DHT22;62792;46.236;6.040;2024-03-08T16:15:49;24.30;38.80
74359;DHT22;62792;46.236;6.040;2024-03-08T16:20:54;24.30;39.10
74359;DHT22;62792;46.236;6.040;2024-03-08T16:25:58;24.40;39.00
74359;DHT22;62792;46.236;6.040;2024-03-08T16:31:01;24.50;39.20
74359;DHT22;62792;46.236;6.040;2024-03-08T16:36:07;24.60;39.10
74359;DHT22;62792;46.236;6.040;2024-03-08T16:41:12;24.50;38.90
74359;DHT22;62792;46.236;6.040;2024-03-08T16:46:16;24.40;38.60
74359;DHT22;62792;46.236;6.040;2024-03-08T16:51:20;24.40;38.60
74359;DHT22;62792;46.236;6.040;2024-03-08T16:56:24;24.40;38.40
74359;DHT22;62792;46.236;6.040;2024-03-08T17:01:26;24.30;38.50
74359;DHT22;62792;46.236;6.040;2024-03-08T17:06:31;24.20;38.40
74359;DHT22;62792;46.236;6.040;2024-03-08T17:11:35;24.10;38.40
74359;DHT22;62792;46.236;6.040;2024-03-08T17:16:38;24.10;38.30
74359;DHT22;62792;46.236;6.040;2024-03-08T17:21:43;24.20;38.40
74359;DHT22;62792;46.236;6.040;2024-03-08T17:26:46;24.10;38.40
74359;DHT22;62792;46.236;6.040;2024-03-08T17:31:49;24.10;38.40
74359;DHT22;62792;46.236;6.040;2024-03-08T17:36:53;24.10;38.50
74359;DHT22;62792;46.236;6.040;2024-03-08T17:42:00;24.10;38.40
74359;DHT22;62792;46.236;6.040;2024-03-08T17:47:03;24.20;38.70
74359;DHT22;62792;46.236;6.040;2024-03-08T17:52:08;24.00;38.60
74359;DHT22;62792;46.236;6.040;2024-03-08T17:57:12;24.10;38.60
74359;DHT22;62792;46.236;6.040;2024-03-08T18:02:16;24.00;38.60
74359;DHT22;62792;46.236;6.040;2024-03-08T18:07:22;24.00;38.50
74359;DHT22;62792;46.236;6.040;2024-03-08T18:12:25;23.90;38.70
74359;DHT22;62792;46.236;6.040;2024-03-08T18:17:28;23.90;38.60
74359;DHT22;62792;46.236;6.040;2024-03-08T18:22:33;23.90;38.50
74359;DHT22;62792;46.236;6.040;2024-03-08T18:27:36;23.80;38.70
74359;DHT22;62792;46.236;6.040;2024-03-08T18:32:40;23.80;38.70
74359;DHT22;62792;46.236;6.040;2024-03-08T18:37:46;23.70;38.70
74359;DHT22;62792;46.236;6.040;2024-03-08T18:42:52;23.70;38.80
74359;DHT22;62792;46.236;6.040;2024-03-08T18:47:56;23.70;38.60
74359;DHT22;62792;46.236;6.040;2024-03-08T18:53:00;23.60;39.50
74359;DHT22;62792;46.236;6.040;2024-03-08T18:58:04;23.50;39.40
74359;DHT22;62792;46.236;6.040;2024-03-08T19:03:07;23.60;39.50
74359;DHT22;62792;46.236;6.040;2024-03-08T19:08:13;23.50;39.50
74359;DHT22;62792;46.236;6.040;2024-03-08T19:13:18;23.50;39.60
74359;DHT22;62792;46.236;6.040;2024-03-08T19:18:22;23.40;39.50
74359;DHT22;62792;46.236;6.040;2024-03-08T19:23:28;23.40;39.60
74359;DHT22;62792;46.236;6.040;2024-03-08T19:28:36;23.40;39.30
74359;DHT22;62792;46.236;6.040;2024-03-08T19:33:39;23.40;39.40
74359;DHT22;62792;46.236;6.040;2024-03-08T19:38:43;23.40;39.60
74359;DHT22;62792;46.236;6.040;2024-03-08T19:43:47;23.30;39.50
74359;DHT22;62792;46.236;6.040;2024-03-08T19:48:50;23.30;39.40
74359;DHT22;62792;46.236;6.040;2024-03-08T19:53:56;23.40;39.30
74359;DHT22;62792;46.236;6.040;2024-03-08T19:58:59;23.30;39.70
74359;DHT22;62792;46.236;6.040;2024-03-08T20:04:03;23.30;39.40
74359;DHT22;62792;46.236;6.040;2024-03-08T20:09:07;23.30;39.40
74359;DHT22;62792;46.236;6.040;2024-03-08T20:14:10;23.30;39.50
74359;DHT22;62792;46.236;6.040;2024-03-08T20:19:15;23.20;39.40
74359;DHT22;62792;46.236;6.040;2024-03-08T20:24:19;23.30;39.40
74359;DHT22;62792;46.236;6.040;2024-03-08T20:29:24;23.30;39.50
74359;DHT22;62792;46.236;6.040;2024-03-08T20:34:28;23.20;39.40
74359;DHT22;62792;46.236;6.040;2024-03-08T20:39:33;23.20;39.50
74359;DHT22;62792;46.236;6.040;2024-03-08T20:44:35;23.20;39.40
74359;DHT22;62792;46.236;6.040;2024-03-08T20:49:39;23.20;39.50
74359;DHT22;62792;46.236;6.040;2024-03-08T20:54:43;23.20;39.50
74359;DHT22;62792;46.236;6.040;2024-03-08T20:59:46;23.20;39.50
74359;DHT22;62792;46.236;6.040;2024-03-08T21:04:49;23.20;39.50
74359;DHT22;62792;46.236;6.040;2024-03-08T21:09:55;23.10;39.50
74359;DHT22;62792;46.236;6.040;2024-03-08T21:14:58;23.10;39.50
74359;DHT22;62792;46.236;6.040;2024-03-08T21:20:01;23.20;39.50
74359;DHT22;62792;46.236;6.040;2024-03-08T21:25:07;23.10;39.40
74359;DHT22;62792;46.236;6.040;2024-03-08T21:30:11;23.10;39.50
74359;DHT22;62792;46.236;6.040;2024-03-08T21:35:19;23.10;39.60
74359;DHT22;62792;46.236;6.040;2024-03-08T21:40:23;23.10;39.40
74359;DHT22;62792;46.236;6.040;2024-03-08T21:45:29;23.10;39.60
74359;DHT22;62792;46.236;6.040;2024-03-08T21:50:33;23.10;39.40
74359;DHT22;62792;46.236;6.040;2024-03-08T21:55:38;23.00;39.50
74359;DHT22;62792;46.236;6.040;2024-03-08T22:00:41;23.00;39.40
74359;DHT22;62792;46.236;6.040;2024-03-08T22:05:44;23.00;39.60
74359;DHT22;62792;46.236;6.040;2024-03-08T22:10:48;23.00;39.50
74359;DHT22;62792;46.236;6.040;2024-03-08T22:15:51;23.10;39.30
74359;DHT22;62792;46.236;6.040;2024-03-08T22:20:54;23.10;39.60
74359;DHT22;62792;46.236;6.040;2024-03-08T22:25:59;23.00;39.60
74359;DHT22;62792;46.236;6.040;2024-03-08T22:31:09;23.00;39.40
74359;DHT22;62792;46.236;6.040;2024-03-08T22:36:11;23.10;39.50
74359;DHT22;62792;46.236;6.040;2024-03-08T22:41:16;23.00;39.50
74359;DHT22;62792;46.236;6.040;2024-03-08T22:46:19;23.00;39.60
74359;DHT22;62792;46.236;6.040;2024-03-08T22:51:22;23.00;39.50
74359;DHT22;62792;46.236;6.040;2024-03-08T22:56:28;23.00;39.40
74359;DHT22;62792;46.236;6.040;2024-03-08T23:01:33;23.00;39.40
74359;DHT22;62792;46.236;6.040;2024-03-08T23:06:36;23.00;39.40
74359;DHT22;62792;46.236;6.040;2024-03-08T23:11:40;23.00;39.30
74359;DHT22;62792;46.236;6.040;2024-03-08T23:16:44;23.00;39.50
74359;DHT22;62792;46.236;6.040;2024-03-08T23:21:48;23.00;39.40
74359;DHT22;62792;46.236;6.040;2024-03-08T23:26:53;22.90;39.40
74359;DHT22;62792;46.236;6.040;2024-03-08T23:31:58;23.00;39.40
74359;DHT22;62792;46.236;6.040;2024-03-08T23:37:01;23.00;39.60
74359;DHT22;62792;46.236;6.040;2024-03-08T23:42:07;22.90;39.30
74359;DHT22;62792;46.236;6.040;2024-03-08T23:47:11;23.00;39.40
74359;DHT22;62792;46.236;6.040;2024-03-08T23:52:14;22.90;39.40
74359;DHT22;62792;46.236;6.040;2024-03-08T23:57:18;22.90;39.40
